Time;durP1;ratioP1;P1;durP2;ratioP2;P2;SDS_P1;SDS_P2;PMS_P1;PMS_P2;Temp;Humidity;BMP_temperature;BMP_pressure;BME280_temperature;BME280_humidity;BME280_pressure;Samples;Min_cycle;Max_cycle;Signal;HPM_P1;HPM_P2
2023/06/27 00:00:47;;;;;;;14.70;2.25;;;14.70;99.90;;;;;;5012898;28;20030;-72
2023/06/27 00:03:13;;;;;;;8.43;2.30;;;14.70;99.90;;;;;;5012171;28;20394;-72
2023/06/27 00:05:39;;;;;;;6.07;1.70;;;14.70;99.90;;;;;;5012634;28;20037;-72
2023/06/27 00:08:06;;;;;;;9.60;1.83;;;14.70;99.90;;;;;;5012324;28;20033;-72
2023/06/27 00:10:33;;;;;;;11.35;2.05;;;14.60;99.90;;;;;;5012820;28;20026;-72
2023/06/27 00:12:59;;;;;;;9.38;2.03;;;14.70;99.90;;;;;;5013030;28;20034;-72
2023/06/27 00:15:27;;;;;;;11.90;2.47;;;14.60;99.90;;;;;;5013027;28;20030;-73
2023/06/27 00:17:53;;;;;;;8.02;1.58;;;14.60;99.90;;;;;;5012667;28;20026;-73
2023/06/27 00:20:19;;;;;;;9.75;1.80;;;14.60;99.90;;;;;;5012671;28;20530;-72
2023/06/27 00:22:46;;;;;;;7.55;1.95;;;14.60;99.90;;;;;;5012083;28;20026;-73
2023/06/27 00:25:12;;;;;;;6.85;1.73;;;14.50;99.90;;;;;;5012348;28;20036;-73
2023/06/27 00:27:38;;;;;;;9.55;2.17;;;14.50;99.90;;;;;;5013015;28;20038;-72
2023/06/27 00:30:04;;;;;;;14.05;1.95;;;14.40;99.90;;;;;;5012415;28;20036;-73
2023/06/27 00:32:30;;;;;;;13.40;2.95;;;14.40;99.90;;;;;;5012636;28;20387;-73
2023/06/27 00:34:55;;;;;;;8.25;1.70;;;14.40;99.90;;;;;;5012282;28;20117;-73
2023/06/27 00:37:21;;;;;;;14.65;2.10;;;14.40;99.90;;;;;;5012248;28;20030;-72
2023/06/27 00:39:46;;;;;;;8.23;2.72;;;14.40;99.90;;;;;;5011760;28;20600;-72
2023/06/27 00:42:12;;;;;;;8.18;2.22;;;14.40;99.90;;;;;;5012146;28;20022;-72
2023/06/27 00:44:38;;;;;;;9.30;1.85;;;14.40;99.90;;;;;;5012086;28;20022;-72
2023/06/27 00:47:04;;;;;;;6.30;1.85;;;14.40;99.90;;;;;;5011826;28;20428;-73
2023/06/27 00:49:30;;;;;;;10.48;1.85;;;14.30;99.90;;;;;;5011793;28;20519;-72
2023/06/27 00:51:56;;;;;;;12.45;1.88;;;14.30;99.90;;;;;;5012137;28;20026;-72
2023/06/27 00:54:23;;;;;;;6.63;1.70;;;14.40;99.90;;;;;;5012186;28;20064;-71
2023/06/27 00:56:53;;;;;;;8.85;2.08;;;14.30;99.90;;;;;;5011834;28;20029;-72
2023/06/27 00:59:19;;;;;;;13.45;1.85;;;14.30;99.90;;;;;;5012216;28;20034;-73
2023/06/27 01:01:45;;;;;;;9.63;1.95;;;14.30;99.90;;;;;;5011727;28;20022;-72
2023/06/27 01:04:11;;;;;;;10.48;1.90;;;14.30;99.90;;;;;;5011804;28;20070;-72
2023/06/27 01:06:52;;;;;;;13.15;2.28;;;14.30;99.90;;;;;;5011127;28;20113;-72
2023/06/27 01:09:23;;;;;;;10.65;1.73;;;14.20;99.90;;;;;;5011621;28;20030;-73
2023/06/27 01:12:00;;;;;;;9.57;1.92;;;14.20;99.90;;;;;;5011360;28;20069;-73
2023/06/27 01:14:29;;;;;;;9.27;2.00;;;14.30;99.90;;;;;;5011814;28;20076;-73
2023/06/27 01:16:55;;;;;;;13.07;2.38;;;14.20;99.90;;;;;;5011919;28;20034;-73
2023/06/27 01:19:25;;;;;;;11.50;2.10;;;14.30;99.90;;;;;;5011809;28;20077;-72
2023/06/27 01:21:58;;;;;;;9.60;2.20;;;14.30;99.90;;;;;;5012293;28;20030;-73
2023/06/27 01:24:25;;;;;;;10.75;1.80;;;14.30;99.90;;;;;;5012577;28;20121;-73
2023/06/27 01:26:51;;;;;;;9.07;2.22;;;14.30;99.90;;;;;;5011685;28;20034;-72
2023/06/27 01:29:16;;;;;;;12.88;1.83;;;14.30;99.90;;;;;;5011218;28;20030;-73
2023/06/27 01:31:59;;;;;;;9.35;1.88;;;14.30;99.90;;;;;;5011150;28;20044;-74
2023/06/27 01:34:45;;;;;;;11.07;2.42;;;14.30;99.90;;;;;;5011399;28;20037;-73
2023/06/27 01:37:22;;;;;;;8.32;1.80;;;14.30;99.90;;;;;;5011289;28;20090;-73
2023/06/27 01:39:55;;;;;;;13.15;2.55;;;14.20;99.90;;;;;;5011724;28;20468;-73
2023/06/27 01:42:27;;;;;;;10.82;2.38;;;14.20;99.90;;;;;;5015731;28;20375;-71
2023/06/27 01:44:54;;;;;;;8.48;2.55;;;14.20;99.90;;;;;;5015369;28;20022;-73
2023/06/27 01:47:22;;;;;;;10.45;2.10;;;14.20;99.90;;;;;;5014645;28;20472;-71
2023/06/27 01:49:47;;;;;;;9.77;1.95;;;14.20;99.90;;;;;;5015424;28;20521;-73
2023/06/27 01:52:13;;;;;;;8.90;2.05;;;14.20;99.90;;;;;;5015503;28;20143;-70
2023/06/27 01:54:40;;;;;;;12.30;2.67;;;14.20;99.90;;;;;;5014835;28;20492;-73
2023/06/27 01:57:07;;;;;;;7.50;2.13;;;14.20;99.90;;;;;;5015361;28;20080;-72
2023/06/27 01:59:32;;;;;;;11.82;2.08;;;14.20;99.90;;;;;;5014590;28;20067;-73
2023/06/27 02:01:58;;;;;;;10.70;2.28;;;14.20;99.90;;;;;;5015093;28;20097;-73
2023/06/27 02:04:23;;;;;;;8.05;1.67;;;14.20;99.90;;;;;;5015174;28;20049;-73
2023/06/27 02:06:49;;;;;;;9.95;2.10;;;14.20;99.90;;;;;;5014401;28;20034;-72
2023/06/27 02:09:15;;;;;;;8.73;1.90;;;14.20;99.90;;;;;;5013692;28;20026;-72
2023/06/27 02:11:40;;;;;;;9.43;2.00;;;14.10;99.90;;;;;;5015477;28;20033;-73
2023/06/27 02:14:06;;;;;;;10.07;1.90;;;14.10;99.90;;;;;;5015146;28;20076;-72
2023/06/27 02:16:32;;;;;;;10.48;1.90;;;14.10;99.90;;;;;;5015233;28;20033;-71
2023/06/27 02:18:57;;;;;;;6.13;1.73;;;14.10;99.90;;;;;;5014856;28;20034;-72
2023/06/27 02:21:23;;;;;;;10.13;2.70;;;14.10;99.90;;;;;;5015364;28;20033;-73
2023/06/27 02:23:49;;;;;;;12.35;2.15;;;14.10;99.90;;;;;;5014817;28;20040;-72
2023/06/27 02:26:14;;;;;;;9.60;1.88;;;14.00;99.90;;;;;;5014630;28;20105;-72
2023/06/27 02:28:40;;;;;;;10.30;2.00;;;14.00;99.90;;;;;;5014334;28;20045;-72
2023/06/27 02:31:05;;;;;;;11.75;2.15;;;13.90;99.90;;;;;;5014500;28;20054;-73
2023/06/27 02:33:31;;;;;;;12.02;2.83;;;13.90;99.90;;;;;;5014582;28;20061;-72
2023/06/27 02:35:57;;;;;;;5.43;1.98;;;13.90;99.90;;;;;;5014567;28;20046;-72
2023/06/27 02:38:22;;;;;;;8.27;2.55;;;13.80;99.90;;;;;;5014430;28;20419;-73
2023/06/27 02:40:48;;;;;;;11.73;2.17;;;13.80;99.90;;;;;;5013961;28;20049;-73
2023/06/27 02:43:14;;;;;;;8.52;2.13;;;13.70;99.90;;;;;;5014082;28;20030;-72
2023/06/27 02:45:40;;;;;;;8.38;2.05;;;13.70;99.90;;;;;;5014428;28;20029;-72
2023/06/27 02:48:07;;;;;;;8.20;2.60;;;13.60;99.90;;;;;;5013824;28;20070;-72
2023/06/27 02:50:32;;;;;;;7.47;2.60;;;13.60;99.90;;;;;;5014546;28;20018;-71
2023/06/27 02:52:58;;;;;;;11.90;2.63;;;13.60;99.90;;;;;;5012807;28;20029;-71
2023/06/27 02:55:23;;;;;;;7.47;2.20;;;13.50;99.90;;;;;;5014669;28;20101;-73
2023/06/27 02:57:49;;;;;;;11.15;2.00;;;13.60;99.90;;;;;;5013793;28;20038;-73
2023/06/27 03:00:15;;;;;;;9.52;2.10;;;13.50;99.90;;;;;;5013593;28;20088;-72
2023/06/27 03:02:41;;;;;;;7.13;2.22;;;13.50;99.90;;;;;;5006913;28;20053;-72
2023/06/27 03:05:07;;;;;;;16.40;2.78;;;13.50;99.90;;;;;;4990524;28;20030;-72
2023/06/27 03:07:32;;;;;;;7.03;2.00;;;13.50;99.90;;;;;;4983782;28;20034;-72
2023/06/27 03:09:58;;;;;;;10.45;2.15;;;13.50;99.90;;;;;;4983523;28;20058;-72
2023/06/27 03:12:24;;;;;;;11.52;2.40;;;13.50;99.90;;;;;;4982585;28;20031;-72
2023/06/27 03:14:49;;;;;;;9.30;2.30;;;13.60;99.90;;;;;;4993223;28;20034;-72
2023/06/27 03:17:15;;;;;;;10.00;2.20;;;13.60;99.90;;;;;;4976021;28;20041;-72
2023/06/27 03:19:40;;;;;;;8.10;2.00;;;13.60;99.90;;;;;;4993391;28;20377;-73
2023/06/27 03:22:06;;;;;;;15.88;2.30;;;13.60;99.90;;;;;;4993997;28;20030;-72
2023/06/27 03:24:32;;;;;;;5.85;1.95;;;13.60;99.90;;;;;;4994238;28;20060;-72
2023/06/27 03:26:57;;;;;;;12.65;2.72;;;13.70;99.90;;;;;;4976165;28;20034;-73
2023/06/27 03:29:23;;;;;;;10.68;2.30;;;13.70;99.90;;;;;;4994241;28;20031;-72
2023/06/27 03:31:49;;;;;;;12.68;2.50;;;13.70;99.90;;;;;;4993786;28;20034;-73
2023/06/27 03:34:15;;;;;;;12.00;3.60;;;13.70;99.90;;;;;;4960159;28;20027;-72
2023/06/27 03:36:40;;;;;;;10.23;2.35;;;13.70;99.90;;;;;;4974125;28;20026;-72
2023/06/27 03:39:06;;;;;;;7.05;2.30;;;13.70;99.90;;;;;;4973947;28;20102;-72
2023/06/27 03:41:32;;;;;;;13.50;2.47;;;13.70;99.90;;;;;;4969857;28;20085;-73
2023/06/27 03:43:58;;;;;;;16.27;2.95;;;13.70;99.90;;;;;;4974539;28;20066;-73
2023/06/27 03:46:24;;;;;;;14.27;2.55;;;13.70;99.90;;;;;;4974861;28;20417;-72
2023/06/27 03:48:54;;;;;;;11.20;2.90;;;13.80;99.90;;;;;;4973639;28;20472;-72
2023/06/27 03:51:20;;;;;;;8.70;2.38;;;13.80;99.90;;;;;;4973376;28;20031;-73
2023/06/27 03:53:45;;;;;;;9.40;3.08;;;13.80;99.90;;;;;;4973586;28;20031;-72
2023/06/27 03:56:11;;;;;;;13.50;2.95;;;13.80;99.90;;;;;;4973340;28;20042;-71
2023/06/27 03:58:37;;;;;;;9.88;3.10;;;13.80;99.90;;;;;;4972383;28;20184;-73
2023/06/27 04:01:03;;;;;;;7.45;2.30;;;13.90;99.90;;;;;;4973486;28;20453;-71
2023/06/27 04:03:28;;;;;;;14.93;2.70;;;13.80;99.90;;;;;;4973460;28;20022;-71
2023/06/27 04:05:54;;;;;;;9.80;2.60;;;13.90;99.90;;;;;;4973299;28;20098;-70
2023/06/27 04:08:20;;;;;;;12.93;2.38;;;13.90;99.90;;;;;;4973602;28;20037;-73
2023/06/27 04:10:45;;;;;;;13.30;2.90;;;13.90;99.90;;;;;;4973562;28;20381;-72
2023/06/27 04:13:11;;;;;;;13.35;2.78;;;13.90;99.90;;;;;;4973345;28;20039;-73
2023/06/27 04:15:39;;;;;;;13.45;3.20;;;13.90;99.90;;;;;;4973760;28;20058;-73
2023/06/27 04:18:08;;;;;;;12.32;2.90;;;14.00;99.90;;;;;;4973312;28;20026;-73
2023/06/27 04:20:35;;;;;;;9.25;2.58;;;14.00;99.90;;;;;;4973362;28;20035;-72
2023/06/27 04:23:01;;;;;;;10.82;2.63;;;14.00;99.90;;;;;;4973316;28;20358;-73
2023/06/27 04:25:31;;;;;;;17.88;3.00;;;14.00;99.90;;;;;;4972749;28;20577;-73
2023/06/27 04:27:56;;;;;;;10.52;3.53;;;14.00;99.90;;;;;;4973448;28;20090;-73
2023/06/27 04:30:22;;;;;;;12.88;3.13;;;14.00;99.90;;;;;;4972809;28;20039;-73
2023/06/27 04:32:51;;;;;;;11.18;2.55;;;14.10;99.90;;;;;;4972725;28;20037;-73
2023/06/27 04:35:20;;;;;;;13.07;2.67;;;14.10;99.90;;;;;;4973368;28;20035;-72
2023/06/27 04:37:46;;;;;;;19.05;3.40;;;14.10;99.90;;;;;;4972807;28;20038;-72
2023/06/27 04:40:12;;;;;;;10.57;2.10;;;14.10;99.90;;;;;;4977360;28;20085;-72
2023/06/27 04:42:38;;;;;;;14.07;2.58;;;14.10;99.90;;;;;;4992443;28;20030;-72
2023/06/27 04:45:08;;;;;;;9.52;2.47;;;14.10;99.90;;;;;;4992460;28;20023;-73
2023/06/27 04:47:37;;;;;;;14.05;2.70;;;14.10;99.90;;;;;;4991862;28;20458;-73
2023/06/27 04:50:06;;;;;;;6.68;2.45;;;14.20;99.90;;;;;;4991855;28;20038;-72
2023/06/27 04:52:32;;;;;;;13.68;2.67;;;14.10;99.90;;;;;;4991839;28;20027;-73
2023/06/27 04:54:58;;;;;;;12.65;2.92;;;14.10;99.90;;;;;;4992409;28;20037;-71
2023/06/27 04:57:24;;;;;;;13.43;2.80;;;14.20;99.90;;;;;;4992351;28;20412;-72
2023/06/27 04:59:50;;;;;;;14.50;4.00;;;14.20;99.90;;;;;;4992051;28;20027;-72
2023/06/27 05:02:15;;;;;;;10.95;2.75;;;14.20;99.90;;;;;;4992519;28;20484;-72
2023/06/27 05:04:41;;;;;;;11.70;3.00;;;14.20;99.90;;;;;;4992497;28;20026;-72
2023/06/27 05:07:06;;;;;;;13.13;2.80;;;14.20;99.90;;;;;;4992158;28;20034;-72
2023/06/27 05:09:32;;;;;;;16.88;3.40;;;14.20;99.90;;;;;;4992994;28;20026;-72
2023/06/27 05:11:58;;;;;;;16.33;3.28;;;14.20;99.90;;;;;;4992465;28;20031;-72
2023/06/27 05:14:23;;;;;;;10.32;2.50;;;14.20;99.90;;;;;;4992552;28;20476;-72
2023/06/27 05:16:49;;;;;;;11.98;2.75;;;14.20;99.90;;;;;;4995636;28;20065;-72
2023/06/27 05:19:15;;;;;;;14.18;3.50;;;14.20;99.90;;;;;;4996184;28;20026;-72
2023/06/27 05:21:41;;;;;;;13.45;2.67;;;14.20;99.90;;;;;;4996322;28;20038;-72
2023/06/27 05:24:07;;;;;;;10.18;2.67;;;14.20;99.90;;;;;;4996038;28;20026;-72
2023/06/27 05:26:33;;;;;;;14.13;2.72;;;14.20;99.90;;;;;;4996264;28;20483;-74
2023/06/27 05:28:59;;;;;;;14.98;3.05;;;14.20;99.90;;;;;;4996436;28;20038;-72
2023/06/27 05:31:26;;;;;;;22.80;3.38;;;14.20;99.90;;;;;;4995795;28;20109;-73
2023/06/27 05:33:53;;;;;;;11.68;2.60;;;14.20;99.90;;;;;;4996195;28;20032;-72
2023/06/27 05:36:18;;;;;;;11.20;3.30;;;14.20;99.90;;;;;;4995631;28;20140;-72
2023/06/27 05:38:44;;;;;;;16.65;3.70;;;14.20;99.90;;;;;;4996041;28;20492;-72
2023/06/27 05:41:10;;;;;;;12.15;2.88;;;14.20;99.90;;;;;;4998516;28;20521;-72
2023/06/27 05:43:35;;;;;;;16.27;3.33;;;14.30;99.90;;;;;;4976209;28;20429;-73
2023/06/27 05:46:01;;;;;;;9.85;2.95;;;14.30;99.90;;;;;;4976118;28;20461;-73
2023/06/27 05:48:27;;;;;;;13.75;2.88;;;14.30;99.90;;;;;;4975686;28;20649;-73
2023/06/27 05:50:52;;;;;;;15.15;3.25;;;14.30;99.90;;;;;;4975759;28;20105;-73
2023/06/27 05:53:18;;;;;;;12.10;3.47;;;14.30;99.90;;;;;;4976100;28;20114;-73
2023/06/27 05:55:44;;;;;;;14.93;3.35;;;14.40;99.90;;;;;;4976125;28;20023;-72
2023/06/27 05:58:09;;;;;;;13.13;3.10;;;14.40;99.90;;;;;;4975774;28;20101;-73
2023/06/27 06:00:35;;;;;;;12.52;2.83;;;14.40;99.90;;;;;;4976542;28;20030;-72
2023/06/27 06:03:00;;;;;;;12.60;3.25;;;14.40;99.90;;;;;;4975788;28;20631;-73
2023/06/27 06:05:26;;;;;;;14.18;3.30;;;14.40;99.90;;;;;;4975591;28;20472;-72
2023/06/27 06:07:52;;;;;;;12.40;3.47;;;14.40;99.90;;;;;;4976018;28;20038;-72
2023/06/27 06:10:18;;;;;;;11.30;2.92;;;14.50;99.90;;;;;;4975798;28;20027;-73
2023/06/27 06:12:44;;;;;;;12.70;2.80;;;14.60;99.90;;;;;;4975483;28;20031;-73
2023/06/27 06:15:10;;;;;;;12.20;3.10;;;14.60;99.90;;;;;;4975777;28;20101;-73
2023/06/27 06:17:35;;;;;;;13.13;3.03;;;14.60;99.90;;;;;;4975521;28;20027;-73
2023/06/27 06:20:03;;;;;;;15.57;3.45;;;14.60;99.90;;;;;;4975438;28;20030;-73
2023/06/27 06:22:29;;;;;;;17.92;3.92;;;14.60;99.90;;;;;;4975845;28;20382;-72
2023/06/27 06:24:55;;;;;;;15.00;3.42;;;14.70;99.90;;;;;;4975906;28;20031;-73
2023/06/27 06:27:20;;;;;;;16.90;3.63;;;14.70;99.90;;;;;;4975084;28;20046;-72
2023/06/27 06:29:46;;;;;;;18.38;3.55;;;14.70;99.90;;;;;;4976212;28;20129;-73
2023/06/27 06:32:11;;;;;;;26.17;4.32;;;14.70;99.90;;;;;;4990654;28;20346;-73
2023/06/27 06:34:37;;;;;;;18.67;4.32;;;14.70;99.90;;;;;;4975148;28;20065;-73
2023/06/27 06:37:03;;;;;;;12.25;3.60;;;14.70;99.90;;;;;;4980175;28;20093;-74
2023/06/27 06:39:31;;;;;;;15.48;3.28;;;14.70;99.90;;;;;;4992171;28;20034;-73
2023/06/27 06:41:57;;;;;;;14.10;3.50;;;14.70;99.90;;;;;;5010845;28;20049;-73
2023/06/27 06:44:23;;;;;;;19.38;3.75;;;14.70;99.90;;;;;;5012852;28;20239;-73
2023/06/27 06:46:48;;;;;;;13.45;3.33;;;14.80;99.90;;;;;;5011704;28;20025;-72
2023/06/27 06:49:14;;;;;;;12.52;3.00;;;14.80;99.90;;;;;;5012828;28;20155;-73
2023/06/27 06:51:39;;;;;;;15.77;3.53;;;14.80;99.90;;;;;;5011393;28;20403;-73
2023/06/27 06:54:05;;;;;;;14.18;3.17;;;14.80;99.90;;;;;;5013526;28;20030;-73
2023/06/27 06:56:31;;;;;;;15.23;3.85;;;14.90;99.90;;;;;;5013188;28;20092;-73
2023/06/27 06:58:56;;;;;;;13.93;3.30;;;14.80;99.90;;;;;;4996152;28;20025;-73
2023/06/27 07:01:23;;;;;;;14.48;3.75;;;14.90;99.90;;;;;;5013690;28;20033;-73
2023/06/27 07:03:48;;;;;;;15.27;3.85;;;14.90;99.90;;;;;;5014193;28;20058;-73
2023/06/27 07:06:14;;;;;;;16.42;3.65;;;14.90;99.90;;;;;;5013849;28;20054;-73
2023/06/27 07:08:39;;;;;;;11.23;3.40;;;14.90;99.90;;;;;;5013838;28;20030;-73
2023/06/27 07:11:05;;;;;;;13.55;3.25;;;14.90;99.90;;;;;;5014238;28;20038;-73
2023/06/27 07:13:31;;;;;;;15.27;3.03;;;15.00;99.90;;;;;;5014422;28;20107;-72
2023/06/27 07:15:56;;;;;;;12.23;3.80;;;15.00;99.90;;;;;;5014726;28;20482;-73
2023/06/27 07:18:22;;;;;;;18.38;4.10;;;15.00;99.90;;;;;;5013477;28;20034;-74
2023/06/27 07:20:47;;;;;;;13.65;3.50;;;15.10;99.90;;;;;;5012887;28;20037;-73
2023/06/27 07:23:15;;;;;;;13.90;3.53;;;15.10;99.90;;;;;;5014262;28;20468;-73
2023/06/27 07:25:41;;;;;;;15.30;3.58;;;15.10;99.90;;;;;;5013468;28;20287;-73
2023/06/27 07:28:07;;;;;;;32.20;4.57;;;15.10;99.90;;;;;;5012405;28;20415;-74
2023/06/27 07:30:32;;;;;;;15.40;3.00;;;15.10;99.90;;;;;;5012903;28;20026;-73
2023/06/27 07:32:58;;;;;;;10.80;2.85;;;15.10;99.90;;;;;;4994493;28;20484;-74
2023/06/27 07:35:24;;;;;;;15.02;3.05;;;15.20;99.90;;;;;;5011896;28;20038;-73
2023/06/27 07:37:49;;;;;;;11.45;2.65;;;15.20;99.90;;;;;;5012623;28;20519;-73
2023/06/27 07:40:15;;;;;;;15.35;3.72;;;15.20;99.90;;;;;;5011175;28;20096;-73
2023/06/27 07:42:41;;;;;;;13.60;2.95;;;15.30;99.90;;;;;;4994572;28;20334;-73
2023/06/27 07:45:07;;;;;;;15.00;3.45;;;15.30;99.90;;;;;;4995540;28;20073;-73
2023/06/27 07:47:32;;;;;;;11.55;2.65;;;15.30;99.90;;;;;;5011257;28;20446;-72
2023/06/27 07:49:58;;;;;;;16.65;3.33;;;15.30;99.90;;;;;;5005323;28;20104;-73
2023/06/27 07:52:24;;;;;;;15.48;3.45;;;15.30;99.90;;;;;;5010186;28;20045;-71
2023/06/27 07:54:50;;;;;;;11.00;3.10;;;15.40;99.90;;;;;;5012755;28;20044;-74
2023/06/27 07:57:15;;;;;;;13.43;2.80;;;15.40;99.90;;;;;;5012721;28;20033;-73
2023/06/27 07:59:41;;;;;;;14.32;3.10;;;15.40;99.90;;;;;;5012662;28;20029;-73
2023/06/27 08:02:07;;;;;;;13.10;4.07;;;15.40;99.90;;;;;;5012344;28;20491;-73
2023/06/27 08:04:32;;;;;;;11.32;2.83;;;15.40;99.90;;;;;;5013118;28;20088;-73
2023/06/27 08:06:58;;;;;;;15.73;3.00;;;15.40;99.90;;;;;;4994727;28;20183;-73
2023/06/27 08:09:24;;;;;;;17.08;2.75;;;15.40;99.90;;;;;;5012914;28;20037;-73
2023/06/27 08:11:51;;;;;;;12.55;2.88;;;15.40;99.90;;;;;;5012133;28;20025;-75
2023/06/27 08:14:17;;;;;;;10.05;4.03;;;15.40;99.90;;;;;;5012332;28;20026;-74
2023/06/27 08:16:43;;;;;;;19.00;3.50;;;15.40;99.90;;;;;;5011562;28;20156;-73
2023/06/27 08:19:08;;;;;;;8.75;2.95;;;15.40;99.90;;;;;;5005279;28;20030;-72
2023/06/27 08:21:34;;;;;;;12.15;3.05;;;15.40;99.90;;;;;;5004459;28;20029;-74
2023/06/27 08:24:00;;;;;;;12.70;2.80;;;15.40;99.90;;;;;;5007713;28;20038;-73
2023/06/27 08:26:26;;;;;;;11.82;3.42;;;15.50;99.90;;;;;;5011033;28;20375;-73
2023/06/27 08:28:52;;;;;;;17.33;3.75;;;15.50;99.90;;;;;;5011817;28;20034;-72
2023/06/27 08:31:18;;;;;;;13.15;3.35;;;15.50;99.90;;;;;;5011453;28;20034;-74
2023/06/27 08:33:43;;;;;;;14.88;3.67;;;15.50;99.90;;;;;;5011518;28;20479;-73
2023/06/27 08:36:09;;;;;;;12.63;4.13;;;15.60;99.90;;;;;;5011486;28;20394;-73
2023/06/27 08:38:35;;;;;;;18.02;4.55;;;15.50;99.90;;;;;;5011717;28;20038;-73
2023/06/27 08:41:01;;;;;;;9.55;2.63;;;15.60;99.90;;;;;;5011568;28;20052;-74
2023/06/27 08:43:27;;;;;;;12.00;3.03;;;15.50;99.90;;;;;;5012187;28;20104;-72
2023/06/27 08:45:55;;;;;;;21.80;3.67;;;15.50;99.90;;;;;;5012183;28;20457;-71
2023/06/27 08:48:21;;;;;;;14.40;3.15;;;15.50;99.90;;;;;;5012070;28;20080;-74
2023/06/27 08:50:52;;;;;;;11.75;3.33;;;15.50;99.90;;;;;;5011590;28;20399;-74
2023/06/27 08:53:21;;;;;;;11.18;3.13;;;15.50;99.90;;;;;;5011542;28;20040;-72
2023/06/27 08:56:05;;;;;;;14.48;3.15;;;15.50;99.90;;;;;;5011898;28;20387;-75
2023/06/27 08:58:46;;;;;;;10.35;4.75;;;15.50;99.90;;;;;;5009469;28;20030;-73
2023/06/27 09:01:12;;;;;;;11.90;3.20;;;15.60;99.90;;;;;;5010553;28;20052;-72
2023/06/27 09:03:38;;;;;;;12.18;2.97;;;15.60;99.90;;;;;;5011186;28;20037;-74
2023/06/27 09:06:05;;;;;;;15.52;3.90;;;15.60;99.90;;;;;;4981726;28;20429;-74
2023/06/27 09:08:34;;;;;;;11.27;3.95;;;15.60;99.90;;;;;;4992595;28;20414;-74
2023/06/27 09:11:00;;;;;;;9.95;3.20;;;15.60;99.90;;;;;;5011263;28;20510;-74
2023/06/27 09:13:27;;;;;;;9.32;3.05;;;15.60;99.90;;;;;;5011404;28;20037;-73
2023/06/27 09:15:53;;;;;;;10.00;3.35;;;15.60;99.90;;;;;;5011282;28;20065;-74
2023/06/27 09:18:19;;;;;;;10.32;3.22;;;15.60;99.90;;;;;;5011361;28;20100;-73
2023/06/27 09:20:46;;;;;;;16.20;3.60;;;15.60;99.90;;;;;;5011228;28;20095;-74
2023/06/27 09:23:11;;;;;;;11.40;3.90;;;15.60;99.90;;;;;;5009049;28;20037;-73
2023/06/27 09:25:37;;;;;;;15.10;3.45;;;15.60;99.90;;;;;;5011524;28;20025;-74
2023/06/27 09:28:18;;;;;;;14.25;4.05;;;15.60;99.90;;;;;;5010785;28;20479;-76
2023/06/27 09:30:57;;;;;;;14.68;3.58;;;15.60;99.90;;;;;;5008685;28;20104;-76
2023/06/27 09:33:23;;;;;;;11.60;3.40;;;15.60;99.90;;;;;;5011263;28;20080;-74
2023/06/27 09:35:50;;;;;;;11.18;4.22;;;15.70;99.90;;;;;;5011690;28;20018;-74
2023/06/27 09:38:18;;;;;;;13.88;3.65;;;15.70;99.90;;;;;;5008325;28;20104;-74
2023/06/27 09:40:44;;;;;;;10.77;3.85;;;15.70;99.90;;;;;;5011272;28;20037;-74
2023/06/27 09:43:11;;;;;;;10.88;3.60;;;15.80;99.90;;;;;;5010952;28;20030;-73
2023/06/27 09:45:37;;;;;;;8.23;3.10;;;15.80;99.90;;;;;;4999644;28;20017;-74
2023/06/27 09:48:07;;;;;;;13.07;3.55;;;15.90;99.90;;;;;;5010252;28;20384;-74
2023/06/27 09:50:33;;;;;;;12.00;3.25;;;15.90;99.90;;;;;;5011359;28;20128;-72
2023/06/27 09:53:00;;;;;;;12.20;3.33;;;15.90;99.90;;;;;;5009810;28;20065;-74
2023/06/27 09:55:27;;;;;;;10.90;3.08;;;15.90;99.90;;;;;;5016203;28;20482;-74
2023/06/27 09:57:53;;;;;;;8.85;2.67;;;16.00;99.90;;;;;;5021299;28;20036;-74
2023/06/27 10:00:20;;;;;;;10.57;3.85;;;16.00;99.90;;;;;;5012999;28;20382;-74
2023/06/27 10:02:55;;;;;;;12.40;3.22;;;16.00;99.90;;;;;;5034685;28;20022;-74
2023/06/27 10:05:22;;;;;;;8.65;2.63;;;16.00;99.90;;;;;;5034810;28;20033;-64
2023/06/27 10:07:49;;;;;;;16.38;3.53;;;16.00;99.90;;;;;;5034862;28;20112;-63
2023/06/27 10:10:15;;;;;;;12.65;3.33;;;16.10;99.90;;;;;;5016916;28;20057;-63
2023/06/27 10:12:45;;;;;;;11.98;3.17;;;16.10;99.90;;;;;;5034744;28;20036;-66
2023/06/27 10:15:11;;;;;;;14.30;3.47;;;16.10;99.90;;;;;;5028542;28;20033;-66
2023/06/27 10:17:37;;;;;;;10.60;3.25;;;16.10;99.90;;;;;;5009462;28;20054;-65
2023/06/27 10:20:08;;;;;;;10.05;2.97;;;16.00;99.90;;;;;;5012775;28;20026;-62
2023/06/27 10:22:36;;;;;;;10.73;3.20;;;16.00;99.90;;;;;;5012110;28;20025;-66
2023/06/27 10:25:05;;;;;;;7.82;3.38;;;16.00;99.90;;;;;;5014618;28;20483;-66
2023/06/27 10:27:35;;;;;;;18.73;3.72;;;16.00;99.90;;;;;;5014925;28;20125;-65
2023/06/27 10:30:28;;;;;;;10.40;3.35;;;16.00;99.90;;;;;;5014849;28;20081;-65
2023/06/27 10:33:19;;;;;;;12.10;3.22;;;16.00;99.90;;;;;;5010175;28;20072;-64
2023/06/27 10:35:56;;;;;;;13.23;3.55;;;16.00;99.90;;;;;;5015369;28;20050;-64
2023/06/27 10:38:21;;;;;;;21.65;6.57;;;16.00;99.90;;;;;;5014790;28;20040;-65
2023/06/27 10:41:06;;;;;;;17.60;7.28;;;16.10;99.90;;;;;;5014774;28;20120;-64
2023/06/27 10:43:38;;;;;;;20.42;6.68;;;16.10;99.90;;;;;;5014561;28;20538;-64
2023/06/27 10:46:06;;;;;;;18.67;6.50;;;16.10;99.90;;;;;;5014635;28;20034;-65
2023/06/27 10:48:33;;;;;;;12.63;4.55;;;16.10;99.90;;;;;;5014357;28;20042;-64
2023/06/27 10:51:06;;;;;;;12.70;5.20;;;16.20;99.90;;;;;;5014660;28;20018;-65
2023/06/27 10:53:32;;;;;;;12.27;4.32;;;16.20;99.90;;;;;;4995019;28;20031;-64
2023/06/27 10:56:13;;;;;;;9.80;3.28;;;16.30;99.90;;;;;;5013222;28;20018;-63
2023/06/27 10:58:44;;;;;;;11.70;3.75;;;16.30;99.90;;;;;;5013884;28;20026;-63
2023/06/27 11:01:11;;;;;;;;;;;16.30;99.90;;;;;;5012415;28;20072;-64
2023/06/27 11:03:44;;;;;;;11.90;3.40;;;16.30;99.90;;;;;;5008591;28;19921;-64
2023/06/27 11:06:10;;;;;;;14.93;3.25;;;16.30;99.90;;;;;;5013996;28;20025;-65
2023/06/27 11:08:38;;;;;;;11.25;3.08;;;16.30;99.90;;;;;;5014259;28;20088;-64
2023/06/27 11:11:08;;;;;;;6.82;3.30;;;16.30;99.90;;;;;;5011897;28;20026;-64
2023/06/27 11:13:45;;;;;;;10.38;3.63;;;16.30;99.90;;;;;;5013201;28;20022;-64
2023/06/27 11:16:13;;;;;;;6.03;2.95;;;16.30;99.90;;;;;;5014019;28;20030;-63
2023/06/27 11:18:40;;;;;;;7.30;2.83;;;16.20;99.90;;;;;;5013893;28;20030;-63
2023/06/27 11:21:06;;;;;;;5.45;2.40;;;16.20;99.90;;;;;;5014101;28;20022;-64
2023/06/27 11:23:33;;;;;;;8.82;2.85;;;16.20;99.90;;;;;;5014218;28;20033;-64
2023/06/27 11:26:00;;;;;;;15.07;3.88;;;16.20;99.90;;;;;;5024561;28;20216;-62
2023/06/27 11:28:26;;;;;;;8.50;2.70;;;16.20;99.90;;;;;;5019244;28;20060;-62
2023/06/27 11:30:59;;;;;;;10.23;3.17;;;16.20;99.90;;;;;;5025519;28;20021;-62
2023/06/27 11:33:26;;;;;;;9.93;3.50;;;16.20;99.90;;;;;;5007156;28;20022;-62
2023/06/27 11:36:00;;;;;;;17.42;3.58;;;16.10;99.90;;;;;;5019142;28;20033;-64
2023/06/27 11:38:27;;;;;;;9.45;3.22;;;16.20;99.90;;;;;;5025700;28;20037;-63
2023/06/27 11:40:54;;;;;;;10.02;3.60;;;16.10;99.90;;;;;;5020516;28;20017;-66
2023/06/27 11:43:20;;;;;;;11.90;3.55;;;16.10;99.90;;;;;;5013659;28;20042;-64
2023/06/27 11:45:52;;;;;;;12.43;4.15;;;16.10;99.90;;;;;;4996072;28;20060;-63
2023/06/27 11:48:18;;;;;;;9.02;3.72;;;16.10;99.90;;;;;;5013392;28;20034;-63
2023/06/27 11:51:12;;;;;;;9.05;3.55;;;16.10;99.90;;;;;;5023471;28;20030;-64
2023/06/27 11:53:50;;;;;;;9.38;3.85;;;16.10;99.90;;;;;;5002327;28;20025;-62
2023/06/27 11:56:21;;;;;;;12.13;3.78;;;16.10;99.90;;;;;;5006935;28;20323;-64
2023/06/27 11:58:48;;;;;;;7.97;3.00;;;16.10;99.90;;;;;;5007144;28;20039;-64
2023/06/27 12:01:18;;;;;;;12.70;3.13;;;16.00;99.90;;;;;;5011952;28;20096;-64
2023/06/27 12:03:51;;;;;;;12.85;3.50;;;16.00;99.90;;;;;;5006768;28;20025;-63
2023/06/27 12:06:31;;;;;;;8.07;2.90;;;16.00;99.90;;;;;;5013397;28;20041;-63
2023/06/27 12:09:00;;;;;;;5.15;2.42;;;16.00;99.90;;;;;;4996729;28;20117;-63
2023/06/27 12:11:35;;;;;;;6.55;3.45;;;16.00;99.90;;;;;;5012511;28;20030;-62
2023/06/27 12:14:05;;;;;;;7.78;3.15;;;16.00;99.90;;;;;;5010336;28;20030;-63
2023/06/27 12:16:36;;;;;;;8.13;2.88;;;16.10;99.90;;;;;;5011226;28;20491;-61
2023/06/27 12:19:13;;;;;;;9.80;3.50;;;16.10;99.90;;;;;;5011249;28;20052;-62
2023/06/27 12:21:39;;;;;;;11.82;3.40;;;16.10;99.90;;;;;;5011522;28;20060;-62
2023/06/27 12:24:05;;;;;;;12.15;4.10;;;16.10;99.90;;;;;;5010631;28;20037;-62
2023/06/27 12:26:31;;;;;;;11.32;3.20;;;16.10;99.90;;;;;;5012356;28;20028;-62
2023/06/27 12:28:58;;;;;;;10.27;3.38;;;16.10;99.90;;;;;;5012524;28;20033;-62
2023/06/27 12:31:24;;;;;;;12.32;3.42;;;16.10;99.90;;;;;;5012456;28;20034;-63
2023/06/27 12:33:51;;;;;;;12.23;3.63;;;16.10;99.90;;;;;;5012350;28;20026;-63
2023/06/27 12:36:24;;;;;;;11.25;3.72;;;16.10;99.90;;;;;;5012345;28;20114;-63
2023/06/27 12:38:51;;;;;;;11.32;3.70;;;16.10;99.90;;;;;;5010469;28;20033;-63
2023/06/27 12:41:22;;;;;;;12.57;3.80;;;16.10;99.90;;;;;;5007138;28;20492;-63